createdAt,value
2023-05-21T00:01:45.796Z,9.25
2023-05-21T00:04:49.098Z,9.85
2023-05-21T00:07:53.520Z,10.05
2023-05-21T00:10:56.589Z,14.18
2023-05-21T00:13:59.555Z,11.73
2023-05-21T00:17:02.823Z,12.05
2023-05-21T00:20:07.506Z,10.90
2023-05-21T00:23:10.758Z,9.85
2023-05-21T00:26:14.005Z,9.25
2023-05-21T00:29:18.593Z,10.70
2023-05-21T00:32:21.567Z,12.48
2023-05-21T00:35:24.547Z,11.65
2023-05-21T00:38:28.052Z,13.48
2023-05-21T00:41:35.424Z,11.43
2023-05-21T00:44:39.444Z,10.13
2023-05-21T00:47:44.223Z,11.38
2023-05-21T00:50:47.414Z,13.95
2023-05-21T00:53:53.235Z,12.63
2023-05-21T00:56:56.521Z,12.88
2023-05-21T00:59:59.898Z,15.47
2023-05-21T01:03:05.532Z,14.38
2023-05-21T01:06:10.011Z,16.50
2023-05-21T01:09:13.128Z,16.17
2023-05-21T01:12:17.859Z,14.23
2023-05-21T01:15:21.188Z,11.03
2023-05-21T01:18:25.005Z,17.60
2023-05-21T01:21:30.583Z,13.35
2023-05-21T01:24:34.817Z,10.35
2023-05-21T01:27:38.132Z,12.02
2023-05-21T01:30:42.711Z,10.30
2023-05-21T01:33:50.397Z,12.82
2023-05-21T01:37:01.557Z,10.90
2023-05-21T01:40:23.989Z,11.68
2023-05-21T01:43:29.726Z,10.82
2023-05-21T01:46:36.689Z,8.30
2023-05-21T01:49:40.499Z,10.18
2023-05-21T01:52:54.910Z,11.80
2023-05-21T01:55:59.480Z,11.50
2023-05-21T01:59:02.945Z,10.75
2023-05-21T02:02:06.192Z,12.47
2023-05-21T02:05:09.862Z,11.60
2023-05-21T02:08:15.127Z,9.98
2023-05-21T02:11:20.902Z,11.10
2023-05-21T02:14:25.432Z,8.15
2023-05-21T02:17:35.073Z,8.60
2023-05-21T02:20:38.510Z,11.40
2023-05-21T02:23:42.674Z,10.63
2023-05-21T02:26:47.248Z,15.05
2023-05-21T02:29:50.576Z,10.13
2023-05-21T02:32:53.854Z,13.07
2023-05-21T02:35:57.314Z,11.77
2023-05-21T02:39:02.020Z,12.20
2023-05-21T02:42:05.420Z,21.42
2023-05-21T02:45:12.976Z,15.75
2023-05-21T02:48:18.455Z,17.77
2023-05-21T02:51:21.763Z,18.08
2023-05-21T02:54:25.083Z,14.48
2023-05-21T02:57:28.448Z,14.02
2023-05-21T03:00:31.562Z,12.68
2023-05-21T03:03:36.555Z,15.80
2023-05-21T03:06:40.406Z,11.75
2023-05-21T03:09:43.459Z,13.23
2023-05-21T03:12:47.227Z,11.88
2023-05-21T03:15:56.218Z,13.48
2023-05-21T03:18:59.444Z,9.87
2023-05-21T03:22:04.005Z,11.75
2023-05-21T03:25:11.031Z,12.38
2023-05-21T03:28:14.950Z,10.70
2023-05-21T03:31:26.750Z,10.95
2023-05-21T03:34:47.502Z,12.20
2023-05-21T03:37:52.197Z,10.90
2023-05-21T03:40:55.274Z,11.50
2023-05-21T03:43:58.697Z,8.18
2023-05-21T03:47:06.361Z,10.88
2023-05-21T03:50:12.460Z,9.43
2023-05-21T03:53:15.857Z,9.38
2023-05-21T03:56:19.439Z,10.07
2023-05-21T03:59:23.512Z,10.48
2023-05-21T04:02:28.361Z,11.43
2023-05-21T04:05:31.771Z,12.23
2023-05-21T04:08:35.169Z,9.63
2023-05-21T04:11:38.342Z,10.80
2023-05-21T04:14:41.860Z,10.98
2023-05-21T04:17:47.515Z,8.13
2023-05-21T04:20:50.670Z,9.47
2023-05-21T04:23:54.331Z,11.23
2023-05-21T04:27:17.940Z,8.93
2023-05-21T04:30:22.220Z,10.30
2023-05-21T04:33:25.873Z,13.30
2023-05-21T04:36:29.190Z,10.83
2023-05-21T04:39:33.183Z,10.50
2023-05-21T04:42:36.623Z,13.65
2023-05-21T04:45:40.257Z,10.00
2023-05-21T04:48:45.240Z,11.90
2023-05-21T04:51:49.626Z,8.93
2023-05-21T04:54:54.147Z,8.98
2023-05-21T04:57:57.547Z,9.10
2023-05-21T05:01:03.551Z,9.85
2023-05-21T05:04:07.231Z,9.73
2023-05-21T05:07:10.775Z,9.17
2023-05-21T05:10:14.373Z,7.93
2023-05-21T05:13:17.442Z,8.65
2023-05-21T05:16:25.694Z,8.05
2023-05-21T05:19:35.227Z,8.07
2023-05-21T05:22:38.644Z,8.07
2023-05-21T05:25:41.934Z,8.10
2023-05-21T05:28:46.466Z,9.25
2023-05-21T05:31:50.230Z,10.45
2023-05-21T05:34:53.671Z,8.70
2023-05-21T05:37:57.062Z,7.53
2023-05-21T05:41:00.326Z,8.88
2023-05-21T05:44:04.461Z,10.50
2023-05-21T05:47:11.895Z,8.95
2023-05-21T05:50:16.002Z,6.72
2023-05-21T05:53:19.318Z,7.43
2023-05-21T05:56:22.639Z,7.95
2023-05-21T05:59:25.818Z,8.27
2023-05-21T06:02:33.671Z,7.25
2023-05-21T06:05:36.934Z,9.38
2023-05-21T06:08:40.673Z,7.87
2023-05-21T06:11:44.006Z,6.60
2023-05-21T06:14:49.081Z,5.25
2023-05-21T06:17:52.381Z,6.38
2023-05-21T06:20:55.956Z,7.63
2023-05-21T06:24:00.175Z,6.63
2023-05-21T06:27:05.165Z,7.50
2023-05-21T06:30:09.704Z,6.25
2023-05-21T06:33:15.405Z,6.15
2023-05-21T06:36:18.960Z,6.43
2023-05-21T06:39:25.673Z,8.70
2023-05-21T06:42:28.756Z,7.07
2023-05-21T06:45:51.798Z,8.73
2023-05-21T06:49:14.148Z,6.03
2023-05-21T06:52:18.105Z,8.10
2023-05-21T06:55:21.797Z,7.40
2023-05-21T06:58:37.669Z,7.35
2023-05-21T07:01:42.660Z,9.07
2023-05-21T07:04:46.158Z,6.05
2023-05-21T07:07:49.284Z,6.70
2023-05-21T07:10:52.595Z,7.63
2023-05-21T07:13:58.829Z,6.82
2023-05-21T07:17:02.195Z,7.28
2023-05-21T07:20:10.112Z,6.93
2023-05-21T07:23:15.269Z,7.28
2023-05-21T07:29:36.849Z,6.72
2023-05-21T07:32:40.132Z,5.95
2023-05-21T07:35:43.621Z,6.53
2023-05-21T07:38:46.942Z,6.50
2023-05-21T07:41:50.166Z,5.43
2023-05-21T07:44:53.503Z,6.97
2023-05-21T07:47:57.399Z,5.50
2023-05-21T07:51:01.879Z,5.60
2023-05-21T07:54:05.299Z,7.82
2023-05-21T07:57:11.763Z,6.47
2023-05-21T08:00:44.076Z,12.35
2023-05-21T08:03:48.130Z,6.00
2023-05-21T08:06:51.655Z,7.10
2023-05-21T08:09:54.721Z,5.25
2023-05-21T08:12:58.028Z,5.93
2023-05-21T08:16:01.177Z,6.43
2023-05-21T08:19:04.623Z,5.47
2023-05-21T08:22:08.300Z,5.13
2023-05-21T08:25:13.563Z,6.20
2023-05-21T08:28:16.727Z,4.43
2023-05-21T08:31:19.718Z,5.47
2023-05-21T08:34:23.409Z,6.63
2023-05-21T08:37:37.400Z,6.57
2023-05-21T08:40:55.169Z,5.60
2023-05-21T08:44:02.136Z,6.10
2023-05-21T08:47:08.088Z,6.40
2023-05-21T08:50:14.050Z,5.35
2023-05-21T08:53:27.356Z,5.63
2023-05-21T08:56:36.053Z,5.70
2023-05-21T08:59:44.241Z,5.30
2023-05-21T09:02:56.507Z,5.80
2023-05-21T09:06:01.999Z,5.65
2023-05-21T09:09:37.011Z,4.57
2023-05-21T09:12:42.785Z,6.13
2023-05-21T09:15:47.301Z,6.10
2023-05-21T09:18:51.977Z,5.30
2023-05-21T09:22:03.882Z,5.10
2023-05-21T09:25:10.690Z,8.25
2023-05-21T09:28:15.869Z,6.10
2023-05-21T09:31:19.105Z,5.47
2023-05-21T09:34:25.323Z,6.25
2023-05-21T09:37:28.374Z,5.32
2023-05-21T09:40:31.988Z,7.03
2023-05-21T09:43:36.974Z,6.60
2023-05-21T09:46:41.939Z,6.00
2023-05-21T09:49:45.763Z,5.93
2023-05-21T09:52:50.811Z,5.93
2023-05-21T09:55:58.132Z,5.80
2023-05-21T09:59:04.598Z,6.63
2023-05-21T10:02:22.915Z,6.50
2023-05-21T10:05:31.098Z,5.13
2023-05-21T10:08:39.579Z,4.43
2023-05-21T10:11:45.081Z,6.35
2023-05-21T10:14:54.218Z,6.10
2023-05-21T10:17:59.247Z,6.47
2023-05-21T10:21:07.269Z,4.25
2023-05-21T10:24:11.416Z,6.65
2023-05-21T10:27:14.712Z,5.95
2023-05-21T10:30:18.680Z,4.72
2023-05-21T10:33:24.427Z,4.60
2023-05-21T10:36:33.538Z,6.75
2023-05-21T10:39:39.036Z,5.10
2023-05-21T10:43:23.389Z,5.43
2023-05-21T10:47:11.426Z,6.43
2023-05-21T10:50:35.720Z,4.93
2023-05-21T10:54:11.296Z,4.07
2023-05-21T10:57:29.298Z,4.72
2023-05-21T11:01:00.078Z,6.90
2023-05-21T11:04:04.986Z,5.63
2023-05-21T11:07:08.629Z,5.83
2023-05-21T11:10:40.837Z,6.50
2023-05-21T11:13:51.230Z,6.43
2023-05-21T11:16:55.070Z,5.70
2023-05-21T11:20:05.374Z,6.00
2023-05-21T11:23:11.446Z,5.07
2023-05-21T11:26:19.241Z,5.65
2023-05-21T11:29:33.634Z,6.70
2023-05-21T11:32:41.403Z,4.82
2023-05-21T11:35:50.258Z,5.68
2023-05-21T11:39:10.947Z,4.60
2023-05-21T11:42:39.512Z,4.80
2023-05-21T11:45:47.332Z,5.57
2023-05-21T11:48:52.867Z,5.18
2023-05-21T11:51:56.940Z,5.40
2023-05-21T11:55:00.207Z,5.57
2023-05-21T11:58:03.799Z,5.32
2023-05-21T12:01:07.240Z,6.47
2023-05-21T12:04:13.718Z,4.85
2023-05-21T12:07:19.417Z,7.00
2023-05-21T12:10:24.329Z,6.60
2023-05-21T12:13:28.601Z,5.38
2023-05-21T12:16:32.888Z,5.55
2023-05-21T12:19:38.197Z,5.55
2023-05-21T12:22:45.075Z,4.72
2023-05-21T12:25:48.561Z,4.90
2023-05-21T12:28:56.329Z,5.28
2023-05-21T12:32:01.397Z,5.03
2023-05-21T12:35:04.908Z,4.82
2023-05-21T12:38:09.728Z,7.93
2023-05-21T12:41:12.711Z,5.43
2023-05-21T12:44:15.794Z,6.95
2023-05-21T12:47:22.765Z,5.05
2023-05-21T12:50:26.754Z,5.60
2023-05-21T12:53:44.605Z,7.95
2023-05-21T12:56:47.540Z,4.90
2023-05-21T12:59:51.661Z,5.00
2023-05-21T13:02:57.165Z,6.38
2023-05-21T13:06:01.324Z,6.35
2023-05-21T13:09:04.759Z,4.80
2023-05-21T13:12:08.299Z,3.80
2023-05-21T13:15:11.536Z,5.20
2023-05-21T13:18:16.090Z,5.40
2023-05-21T13:21:19.238Z,5.78
2023-05-21T13:24:22.329Z,4.90
2023-05-21T13:27:25.721Z,6.27
2023-05-21T13:30:28.956Z,5.18
2023-05-21T13:33:32.371Z,4.93
2023-05-21T13:36:36.144Z,4.70
2023-05-21T13:39:39.328Z,6.03
2023-05-21T13:42:43.573Z,5.17
2023-05-21T13:45:49.621Z,5.68
2023-05-21T13:48:53.224Z,4.88
2023-05-21T13:51:58.284Z,6.10
2023-05-21T13:55:01.712Z,5.97
2023-05-21T13:58:04.759Z,9.20
2023-05-21T14:01:08.093Z,4.55
2023-05-21T14:04:12.301Z,5.75
2023-05-21T14:07:15.668Z,4.65
2023-05-21T14:10:18.890Z,6.88
2023-05-21T14:13:22.383Z,5.33
2023-05-21T14:16:27.643Z,5.50
2023-05-21T14:19:30.759Z,5.28
2023-05-21T14:22:34.047Z,4.25
2023-05-21T14:25:37.674Z,4.43
2023-05-21T14:28:41.908Z,5.13
2023-05-21T14:31:46.484Z,4.97
2023-05-21T14:34:49.690Z,6.07
2023-05-21T14:37:54.192Z,6.18
2023-05-21T14:40:57.794Z,4.53
2023-05-21T14:44:01.020Z,5.17
2023-05-21T14:47:04.344Z,7.00
2023-05-21T14:50:09.213Z,6.47
2023-05-21T14:53:12.675Z,6.43
2023-05-21T14:56:15.901Z,4.82
2023-05-21T14:59:19.072Z,5.20
2023-05-21T15:02:22.662Z,5.38
2023-05-21T15:10:08.489Z,4.30
2023-05-21T15:13:11.560Z,5.20
2023-05-21T15:16:15.697Z,5.10
2023-05-21T15:19:20.705Z,6.05
2023-05-21T15:22:23.718Z,4.38
2023-05-21T15:25:26.883Z,6.05
2023-05-21T15:28:29.973Z,5.43
2023-05-21T15:31:33.395Z,4.93
2023-05-21T15:34:36.471Z,4.90
2023-05-21T15:37:43.799Z,5.45
2023-05-21T15:40:47.789Z,4.85
2023-05-21T15:43:50.803Z,5.03
2023-05-21T15:46:55.029Z,5.13
2023-05-21T15:50:00.520Z,4.55
2023-05-21T15:53:04.846Z,4.70
2023-05-21T15:56:10.505Z,4.05
2023-05-21T15:59:14.285Z,9.13
2023-05-21T16:02:17.410Z,5.07
2023-05-21T16:05:20.708Z,5.93
2023-05-21T16:08:23.940Z,4.43
2023-05-21T16:11:27.936Z,5.05
2023-05-21T16:14:31.331Z,4.93
2023-05-21T16:17:34.379Z,4.67
2023-05-21T16:25:19.887Z,4.20
2023-05-21T16:28:24.613Z,5.47
2023-05-21T16:31:27.940Z,5.50
2023-05-21T16:34:31.236Z,6.07
2023-05-21T16:37:34.648Z,6.45
2023-05-21T16:40:38.003Z,8.27
2023-05-21T16:43:41.133Z,4.70
2023-05-21T16:46:44.270Z,5.00
2023-05-21T16:49:47.562Z,5.30
2023-05-21T16:52:50.898Z,4.80
2023-05-21T16:55:54.379Z,4.00
2023-05-21T16:58:57.434Z,4.43
2023-05-21T17:02:00.790Z,5.28
2023-05-21T17:05:04.917Z,6.57
2023-05-21T17:08:10.927Z,5.05
2023-05-21T17:11:14.124Z,5.93
2023-05-21T17:14:33.144Z,6.35
2023-05-21T17:17:37.240Z,4.95
2023-05-21T17:20:40.684Z,4.60
2023-05-21T17:23:46.584Z,6.18
2023-05-21T17:26:49.715Z,5.93
2023-05-21T17:29:53.114Z,5.97
2023-05-21T17:32:56.249Z,7.40
2023-05-21T17:35:59.375Z,6.03
2023-05-21T17:39:02.456Z,4.88
2023-05-21T17:42:06.044Z,5.95
2023-05-21T17:45:09.798Z,6.03
2023-05-21T17:48:13.044Z,4.75
2023-05-21T17:51:16.573Z,4.50
2023-05-21T17:54:19.953Z,8.18
2023-05-21T17:57:23.476Z,5.50
2023-05-21T18:00:26.753Z,5.70
2023-05-21T18:03:30.390Z,4.97
2023-05-21T18:06:33.717Z,6.03
2023-05-21T18:09:36.869Z,5.05
2023-05-21T18:12:39.866Z,5.55
2023-05-21T18:15:43.137Z,7.05
2023-05-21T18:18:46.725Z,7.15
2023-05-21T18:21:49.906Z,5.83
2023-05-21T18:24:52.752Z,9.45
2023-05-21T18:27:56.494Z,6.25
2023-05-21T18:31:06.471Z,6.50
2023-05-21T18:34:09.842Z,6.03
2023-05-21T18:37:13.291Z,6.10
2023-05-21T18:40:18.263Z,5.88
2023-05-21T18:43:22.040Z,6.43
2023-05-21T18:46:25.625Z,5.70
2023-05-21T18:49:33.983Z,5.03
2023-05-21T18:52:37.180Z,6.83
2023-05-21T18:55:40.384Z,5.55
2023-05-21T18:58:44.073Z,5.88
2023-05-21T19:01:47.391Z,6.93
2023-05-21T19:04:50.685Z,6.60
2023-05-21T19:07:53.794Z,6.00
2023-05-21T19:10:57.488Z,6.93
2023-05-21T19:14:01.616Z,8.27
2023-05-21T19:17:05.213Z,8.55
2023-05-21T19:20:09.541Z,9.23
2023-05-21T19:23:12.924Z,11.53
2023-05-21T19:26:17.056Z,7.75
2023-05-21T19:29:21.685Z,6.60
2023-05-21T19:32:25.624Z,8.02
2023-05-21T19:35:32.696Z,6.15
2023-05-21T19:38:36.274Z,7.93
2023-05-21T19:41:40.635Z,6.53
2023-05-21T19:44:44.148Z,8.10
2023-05-21T19:47:47.443Z,7.13
2023-05-21T19:50:51.359Z,6.03
2023-05-21T19:53:54.514Z,7.03
2023-05-21T19:56:58.111Z,7.68
2023-05-21T20:00:01.655Z,6.40
2023-05-21T20:03:07.170Z,8.18
2023-05-21T20:06:13.207Z,11.88
2023-05-21T20:09:18.229Z,13.33
2023-05-21T20:12:21.923Z,12.52
2023-05-21T20:18:42.818Z,9.20
2023-05-21T20:21:45.894Z,11.70
2023-05-21T20:24:48.978Z,8.60
2023-05-21T20:27:52.127Z,6.65
2023-05-21T20:31:02.452Z,9.02
2023-05-21T20:34:07.892Z,8.25
2023-05-21T20:37:11.693Z,6.38
2023-05-21T20:40:15.076Z,7.53
2023-05-21T20:43:21.906Z,7.60
2023-05-21T20:46:25.918Z,8.95
2023-05-21T20:49:29.086Z,8.48
2023-05-21T20:52:32.423Z,5.93
2023-05-21T20:55:35.928Z,8.23
2023-05-21T20:58:40.117Z,5.93
2023-05-21T21:01:43.330Z,7.70
2023-05-21T21:04:50.803Z,6.45
2023-05-21T21:07:55.876Z,7.15
2023-05-21T21:10:59.333Z,7.77
2023-05-21T21:14:03.006Z,6.97
2023-05-21T21:17:06.221Z,7.72
2023-05-21T21:20:10.916Z,7.28
2023-05-21T21:23:13.961Z,6.43
2023-05-21T21:26:17.816Z,5.17
2023-05-21T21:29:21.122Z,5.85
2023-05-21T21:32:26.291Z,8.48
2023-05-21T21:35:29.613Z,6.45
2023-05-21T21:38:32.722Z,6.78
2023-05-21T21:41:35.977Z,6.70
2023-05-21T21:44:39.588Z,8.27
2023-05-21T21:47:42.741Z,7.22
2023-05-21T21:50:46.426Z,5.65
2023-05-21T21:53:49.810Z,8.68
2023-05-21T21:56:53.016Z,7.93
2023-05-21T21:59:56.291Z,6.60
2023-05-21T22:02:59.769Z,8.18
2023-05-21T22:06:03.081Z,7.00
2023-05-21T22:09:07.731Z,6.60
2023-05-21T22:12:12.173Z,6.20
2023-05-21T22:15:20.510Z,6.13
2023-05-21T22:18:38.748Z,8.35
2023-05-21T22:21:46.446Z,6.90
2023-05-21T22:24:51.290Z,6.50
2023-05-21T22:27:54.871Z,7.27
2023-05-21T22:30:59.155Z,7.47
2023-05-21T22:34:02.264Z,6.68
2023-05-21T22:37:06.386Z,6.50
2023-05-21T22:40:10.742Z,5.68
2023-05-21T22:43:14.481Z,7.23
2023-05-21T22:46:17.885Z,6.78
2023-05-21T22:49:20.910Z,6.93
2023-05-21T22:52:24.464Z,6.78
2023-05-21T22:55:27.728Z,5.80
2023-05-21T22:58:32.665Z,6.07
2023-05-21T23:01:38.259Z,7.47
2023-05-21T23:04:44.809Z,6.13
2023-05-21T23:07:48.004Z,6.97
2023-05-21T23:10:51.008Z,5.32
2023-05-21T23:13:54.068Z,7.20
2023-05-21T23:17:02.403Z,8.38
2023-05-21T23:20:07.560Z,5.75
2023-05-21T23:23:11.681Z,6.25
2023-05-21T23:26:14.919Z,5.20
2023-05-21T23:29:18.392Z,6.90
2023-05-21T23:32:21.624Z,6.95
2023-05-21T23:35:24.755Z,7.53
2023-05-21T23:38:28.095Z,6.30
2023-05-21T23:41:31.495Z,7.00
2023-05-21T23:44:34.507Z,5.23
2023-05-21T23:47:37.708Z,8.18
2023-05-21T23:50:40.923Z,7.75
2023-05-21T23:53:44.172Z,8.48
2023-05-21T23:56:47.217Z,6.22
2023-05-21T23:59:50.155Z,9.70
